Hc Nadja Maria — V2AV4 — position and weather

sailwx.info

Track history (hours):
 
Tides and Currents Weather Stations Pressure Air Temp Water Temp Dewpoint Dewpoint Depression Visibility Wind Speed Wind Dir Waves Ship Positions

Hc Nadja Maria

Last reported at 2014-Nov-11 12:33 UTC. Time now 2014-Nov-23 16:15 UTC.
Position N 17°56' W 063°37'.
Warning: this ship's position is 12 days out of date.

Length 130 m; draft 7.6 m.

Type: Ship (hazmat cat A). MMSI: 304204000.

Date/timePositionNaut miles runAvg speedWind from/ knotsBaromVisibWave heightAir tempDewpointWater temp
2014-Nov-11 12:33N 17°56' W 063°37'1211.9
2014-Nov-11 11:32N 18°06' W 063°30'1212.0
2014-Nov-11 10:33N 18°16' W 063°23'  
2014-Nov-04 07:19N 35°00' W 030°10'3612.0
2014-Nov-04 04:21N 35°18' W 029°32'4612.1
2014-Nov-04 00:32N 35°40' W 028°43'1212.0
2014-Nov-03 23:33N 35°47' W 028°31'1212.1
2014-Nov-03 22:33N 35°54' W 028°19'1111.6
2014-Nov-03 21:33N 35°59' W 028°06'1212.0
2014-Nov-03 20:33N 36°04' W 027°52'3911.6
2014-Nov-03 17:10N 36°16' W 027°06'711.6
2014-Nov-03 16:31N 36°19' W 026°57'2311.8
2014-Nov-03 14:32N 36°26' W 026°30'1711.5
2014-Nov-03 13:05N 36°32' W 026°10'611.6
2014-Nov-03 12:33N 36°34' W 026°03'1111.5
2014-Nov-03 11:33N 36°37' W 025°49'1211.9
2014-Nov-03 10:33N 36°41' W 025°35'4 3.6
2014-Nov-03 09:34N 36°42' W 025°31'10 9.5
2014-Nov-03 08:34N 36°45' W 025°20'1111.4
2014-Nov-03 07:33N 36°49' W 025°06'1111.5
2014-Nov-03 06:33N 36°53' W 024°53'1111.3
2014-Nov-03 05:34N 36°58' W 024°40'1111.5
2014-Nov-03 04:33N 37°03' W 024°27'1211.6
2014-Nov-03 03:33N 37°08' W 024°14'1111.5
2014-Nov-03 02:34N 37°13' W 024°01'1111.3
2014-Nov-03 01:33N 37°18' W 023°48'1211.3
2014-Nov-03 00:31N 37°23' W 023°35'  
Track history (hours):
 
Tides and Currents Weather Stations Pressure Air Temp Water Temp Dewpoint Dewpoint Depression Visibility Wind Speed Wind Dir Waves Ship Positions

Hc Nadja Maria

Last reported at 2014-Nov-11 12:33 UTC. Time now 2014-Nov-23 16:15 UTC.
Position N 17°56' W 063°37'.
Warning: this ship's position is 12 days out of date.

Length 130 m; draft 7.6 m.

Type: Ship (hazmat cat A). MMSI: 304204000.

Date/timePositionNaut miles runAvg speedWind from/ knotsBaromVisibWave heightAir tempDewpointWater temp
2014-Nov-11 12:33N 17°56' W 063°37'1211.9
2014-Nov-11 11:32N 18°06' W 063°30'1212.0
2014-Nov-11 10:33N 18°16' W 063°23'  
2014-Nov-04 07:19N 35°00' W 030°10'3612.0
2014-Nov-04 04:21N 35°18' W 029°32'4612.1
2014-Nov-04 00:32N 35°40' W 028°43'1212.0
2014-Nov-03 23:33N 35°47' W 028°31'1212.1
2014-Nov-03 22:33N 35°54' W 028°19'1111.6
2014-Nov-03 21:33N 35°59' W 028°06'1212.0
2014-Nov-03 20:33N 36°04' W 027°52'3911.6
2014-Nov-03 17:10N 36°16' W 027°06'711.6
2014-Nov-03 16:31N 36°19' W 026°57'2311.8
2014-Nov-03 14:32N 36°26' W 026°30'1711.5
2014-Nov-03 13:05N 36°32' W 026°10'611.6
2014-Nov-03 12:33N 36°34' W 026°03'1111.5
2014-Nov-03 11:33N 36°37' W 025°49'1211.9
2014-Nov-03 10:33N 36°41' W 025°35'4 3.6
2014-Nov-03 09:34N 36°42' W 025°31'10 9.5
2014-Nov-03 08:34N 36°45' W 025°20'1111.4
2014-Nov-03 07:33N 36°49' W 025°06'1111.5
2014-Nov-03 06:33N 36°53' W 024°53'1111.3
2014-Nov-03 05:34N 36°58' W 024°40'1111.5
2014-Nov-03 04:33N 37°03' W 024°27'1211.6
2014-Nov-03 03:33N 37°08' W 024°14'1111.5
2014-Nov-03 02:34N 37°13' W 024°01'1111.3
2014-Nov-03 01:33N 37°18' W 023°48'1211.3
2014-Nov-03 00:31N 37°23' W 023°35'  

Dump ship's entire track history